CheckWX is a tool to help pilots better visualize weather data.  It is not intended as a substitute for an official pre-flight weather briefing.

21:34:31 UTC

FYOA TAF
Ondangwa Airport
Ondangwa, Namibia
TAF FYOA 202000Z 2021/2106 26004KT 9999 -TSRA FEW050CB

Mar-20@
21:00 UTC

Mar-20 @ 21:00 UTC

Mar-21@
06:00 UTC

Mar-21 @ 06:00 UTC

TAF FYOA 202000Z 2021/2106 26004KT 9999 -TSRA FEW050CB
Wind
  • 260° at 4 KTS
Conditions
Light Thunderstorm, Light Rain
Cloud Levels
  • Few at 5,000' AGL